Terminal Aerodrome Forecast
Issued by NWS

Home | Current Version | Previous Version | Text Only | Print | Product List | Glossary On
Versions: 1 2 3 4 5 6 7 8 9 10 11 12 13 14 15 16 17 18 19
000
FTUS42 KKEY 262200 AAB
TAFMTH
TAF AMD
KMTH 262241Z 2623/2718 36016G23KT P6SM SCT019 SCT080
     FM271000 01015G22KT P6SM FEW080
     FM271700 03016KT P6SM SKC=

USA.gov is the U.S. government's official web portal to all federal, state and local government web resources and services.